Latest Weather Observations for Moorabbin Airport

IDV60801

Issued at 8:52 am EST Thursday 1 October 2020 (issued every 10 minutes, with the page automatically refreshed every 10 minutes)

About weather observations | Map of weather stations | Latest weather observations for VIC | Other Formats
Station Details ID: 086077 Name: MOORABBIN AIRPORT Lat: -37.98 Lon: 145.10 Height: 12.1 m
Data from the previous 72 hours. | See also: Recent months at Moorabbin Airport
Date/Time
EST
Temp
°C
App
Temp
°C
Dew
Point
°C
Rel
Hum
%
Delta-T
°C
Wind Press
QNH
hPa
Press
MSL
hPa
Rain since
9am
mm
Dir  Spd
km/h
Gust
km/h
Spd
kts
Gust
kts
01/08:30am 11.9 7.5 6.6 70 2.5 WNW 19 32 10 17 1016.3 1016.3 5.6
01/08:00am 11.4 7.5 6.9 74 2.1 WNW 17 24 9 13 1015.9 1015.9 5.6
01/07:30am 10.9 7.4 7.0 77 1.9 NW 15 20 8 11 1015.7 1015.7 5.6
01/07:00am 9.9 6.6 6.4 79 1.6 NW 13 17 7 9 1015.4 1015.4 5.6
01/06:30am 9.6 6.2 6.0 78 1.7 WNW 13 20 7 11 1014.8 1014.8 5.6
01/06:00am 9.6 5.9 6.3 80 1.5 WNW 15 24 8 13 1014.3 1014.3 5.6
01/05:30am 8.7 6.1 6.3 85 1.1 NW 9 11 5 6 1013.8 1013.8 5.6
01/05:00am 9.5 7.1 6.8 83 1.3 NW 9 17 5 9 1013.3 1013.3 5.6
01/04:30am 9.9 6.7 7.0 82 1.4 WNW 13 19 7 10 1012.9 1012.9 5.6
01/04:00am 10.4 7.4 7.5 82 1.4 NW 13 22 7 12 1012.8 1012.8 5.6
01/03:30am 10.7 7.7 7.6 81 1.5 WNW 13 19 7 10 1012.6 1012.6 5.6
01/03:00am 10.7 6.9 7.6 81 1.5 WNW 17 26 9 14 1012.3 1012.3 5.6
01/02:30am 10.7 7.3 7.6 81 1.5 WNW 15 22 8 12 1012.1 1012.1 5.6
01/02:00am 11.1 7.8 8.0 81 1.5 WNW 15 22 8 12 1012.0 1012.0 5.6
01/01:30am 11.5 7.5 8.4 81 1.5 WNW 19 26 10 14 1011.8 1011.8 5.6
01/01:00am 11.5 7.9 8.5 82 1.5 WNW 17 30 9 16 1011.7 1011.7 5.6
01/12:30am 11.3 8.1 8.3 82 1.5 WNW 15 24 8 13 1011.5 1011.5 5.6
01/12:00am 11.6 7.7 8.8 83 1.4 WNW 19 28 10 15 1011.1 1011.1 5.6
 
Date/Time
EST
Temp
°C
App
Temp
°C
Dew
Point
°C
Rel
Hum
%
Delta-T
°C
Wind Press
QNH
hPa
Press
MSL
hPa
Rain since
9am
mm
Dir  Spd
km/h
Gust
km/h
Spd
kts
Gust
kts
30/11:30pm 12.0 8.3 9.4 84 1.3 W 19 28 10 15 1011.0 1011.0 5.6
30/11:00pm 12.1 8.4 9.5 84 1.3 WNW 19 30 10 16 1010.8 1010.8 5.6
30/10:30pm 12.2 9.0 9.8 85 1.2 WNW 17 26 9 14 1010.6 1010.6 5.6
30/10:00pm 12.6 8.0 9.6 82 1.5 WNW 24 35 13 19 1010.0 1010.0 5.6
30/09:30pm 13.2 10.3 11.1 87 1.1 NW 17 26 9 14 1009.7 1009.7 5.2
30/09:00pm 13.1 10.3 11.2 88 1.0 NNW 17 22 9 12 1009.0 1009.0 4.8
30/08:30pm 13.5 9.6 10.9 84 1.4 WNW 22 35 12 19 1009.3 1009.3 4.4
30/08:00pm 14.4 10.5 12.1 86 1.2 W 24 37 13 20 1008.5 1008.5 3.8
30/07:36pm 13.7 11.4 12.9 95 0.4 W 17 28 9 15 1008.0 1008.0 3.8
30/07:30pm 13.7 11.4 13.1 96 0.3 WSW 17 24 9 13 1008.0 1008.0 3.6
30/07:16pm 13.9 11.1 12.6 92 0.7 WSW 19 30 10 16 1007.9 1007.9 3.0
30/07:00pm 14.9 12.5 12.8 87 1.2 N 17 22 9 12 1007.3 1007.3 1.2
30/06:30pm 16.1 13.8 11.7 75 2.4 NNW 15 20 8 11 1006.9 1006.9 0.4
30/06:00pm 17.0 13.5 10.8 67 3.3 NNW 20 28 11 15 1006.3 1006.3 0.0
30/05:30pm 17.3 12.6 10.7 65 3.5 NNW 26 39 14 21 1006.2 1006.2 0.0
30/05:00pm 17.4 11.9 10.5 64 3.7 NNW 30 43 16 23 1005.9 1005.9 0.0
30/04:30pm 17.7 13.0 10.6 63 3.8 NNW 26 39 14 21 1006.2 1006.2 0.0
30/04:00pm 17.8 12.3 10.4 62 4.0 N 30 39 16 21 1006.2 1006.2 0.0
30/03:30pm 18.2 12.3 10.6 61 4.1 N 32 46 17 25 1006.4 1006.4 0.0
30/03:00pm 18.1 12.1 10.2 60 4.2 NNW 32 43 17 23 1006.6 1006.6 0.0
30/02:30pm 18.4 11.8 10.0 58 4.5 NNW 35 50 19 27 1006.8 1006.8 0.0
30/02:16pm 18.5 12.4 9.8 57 4.6 NNW 32 52 17 28 1006.8 1006.8 0.0
30/02:00pm 18.5 11.8 9.8 57 4.6 NNW 35 52 19 28 1007.1 1007.1 0.0
30/01:51pm 18.5 12.2 9.8 57 4.6 NNW 33 52 18 28 1007.2 1007.2 0.0
30/01:30pm 18.3 12.2 9.9 58 4.5 NNW 32 48 17 26 1007.7 1007.7 0.0
30/01:00pm 18.2 11.5 9.5 57 4.6 NNW 35 48 19 26 1007.9 1007.9 0.0
30/12:30pm 18.2 11.4 10.6 61 4.1 N 37 48 20 26 1008.4 1008.4 0.0
30/12:00pm 17.6 10.3 10.2 62 3.9 NNW 39 59 21 32 1009.0 1009.0 0.0
30/11:30am 16.9 11.0 10.5 66 3.4 N 32 50 17 27 1009.3 1009.3 0.0
30/11:00am 16.6 11.0 10.2 66 3.4 NNW 30 41 16 22 1010.1 1010.1 0.0
30/10:30am 16.2 9.6 10.1 67 3.2 NNW 35 46 19 25 1010.7 1010.7 0.0
30/10:00am 16.6 10.9 11.3 71 2.9 N 32 44 17 24 1011.0 1011.0 0.0
30/09:30am 15.1 9.3 11.5 79 1.9 N 33 44 18 24 1011.4 1011.4 0.0
30/09:00am 14.0 9.5 11.5 85 1.3 N 26 33 14 18 1011.7 1011.7 1.2
30/08:30am 12.8 10.0 11.2 90 0.8 N 17 22 9 12 1012.4 1012.4 1.2
30/08:00am 12.5 10.2 10.6 88 1.0 N 13 17 7 9 1012.9 1012.9 1.0
30/07:30am 13.1 9.9 9.9 81 1.6 N 17 22 9 12 1013.1 1013.1 0.4
30/07:00am 13.2 10.9 10.4 83 1.5 N 13 17 7 9 1012.9 1012.9 0.0
30/06:30am 12.5 10.5 10.2 86 1.2 N 11 13 6 7 1012.8 1012.8 0.0
30/06:00am 13.1 10.9 9.5 79 1.8 NNW 11 13 6 7 1012.8 1012.8 0.0
30/05:30am 13.5 10.1 9.0 74 2.3 WNW 17 24 9 13 1012.8 1012.8 0.0
30/05:00am 14.5 11.7 8.5 67 3.0 NW 13 20 7 11 1012.7 1012.7 0.0
30/04:30am 14.5 12.1 8.5 67 3.0 WNW 11 15 6 8 1012.6 1012.6 0.0
30/04:00am 14.4 12.6 7.9 65 3.2 NW 7 9 4 5 1012.1 1012.1 0.0
30/03:30am 14.9 13.0 7.7 62 3.6 NW 7 9 4 5 1012.3 1012.3 0.0
30/03:00am 15.0 13.4 7.8 62 3.6 N 6 7 3 4 1012.6 1012.6 0.0
30/02:30am 15.1 13.4 7.6 61 3.7 NW 6 9 3 5 1013.1 1013.1 0.0
30/02:00am 15.6 13.3 7.6 59 4.0 NNW 9 13 5 7 1013.6 1013.6 0.0
30/01:30am 16.2 12.7 7.4 56 4.4 N 15 20 8 11 1014.0 1014.0 0.0
30/01:00am 15.5 11.8 8.0 61 3.8 N 17 20 9 11 1014.2 1014.2 0.0
30/12:30am 16.1 11.4 7.8 58 4.2 NNE 22 33 12 18 1014.4 1014.4 0.0
30/12:00am 16.8 11.8 8.0 56 4.5 N 24 37 13 20 1014.9 1014.9 0.0
 
Date/Time
EST
Temp
°C
App
Temp
°C
Dew
Point
°C
Rel
Hum
%
Delta-T
°C
Wind Press
QNH
hPa
Press
MSL
hPa
Rain since
9am
mm
Dir  Spd
km/h
Gust
km/h
Spd
kts
Gust
kts
29/11:30pm 16.4 11.5 8.4 59 4.1 N 24 30 13 16 1015.4 1015.4 0.0
29/11:00pm 16.5 12.0 8.5 59 4.1 N 22 30 12 16 1015.4 1015.4 0.0
29/10:30pm 16.3 11.0 8.5 60 4.0 N 26 33 14 18 1015.5 1015.5 0.0
29/10:00pm 16.0 12.1 8.5 61 3.8 NNE 19 24 10 13 1016.0 1016.0 0.0
29/09:30pm 15.1 12.2 8.3 64 3.4 N 13 17 7 9 1016.5 1016.5 0.0
29/09:00pm 14.8 12.5 7.6 62 3.6 NNE 9 13 5 7 1016.8 1016.8 0.0
29/08:30pm 15.5 13.3 8.0 61 3.8 NNE 9 13 5 7 1017.1 1017.1 0.0
29/08:00pm 15.6 12.3 7.9 60 3.9 N 15 17 8 9 1017.2 1017.2 0.0
29/07:30pm 14.9 11.9 7.7 62 3.6 N 13 15 7 8 1017.3 1017.3 0.0
29/07:00pm 16.9 13.7 6.7 51 5.0 N 13 19 7 10 1017.3 1017.3 0.0
29/06:30pm 17.6 13.9 6.2 47 5.6 N 15 20 8 11 1017.4 1017.4 0.0
29/06:00pm 18.0 13.4 5.6 44 6.0 N 19 26 10 14 1017.3 1017.3 0.0
29/05:30pm 18.6 13.4 5.5 42 6.4 N 22 30 12 16 1017.0 1017.0 0.0
29/05:00pm 18.8 12.9 6.0 43 6.3 N 26 37 14 20 1017.0 1017.0 0.0
29/04:30pm 19.2 12.9 5.6 41 6.7 N 28 37 15 20 1016.9 1016.9 0.0
29/04:00pm 20.0 13.1 4.5 36 7.5 N 30 39 16 21 1016.9 1016.9 0.0
29/03:30pm 20.2 14.5 6.9 42 6.7 N 26 33 14 18 1017.0 1017.0 0.0
29/03:00pm 20.4 14.3 6.7 41 6.9 NNE 28 37 15 20 1017.5 1017.5 0.0
29/02:30pm 20.7 16.4 8.0 44 6.6 NNE 20 32 11 17 1017.9 1017.9 0.0
29/02:00pm 20.2 15.4 7.2 43 6.6 NNE 22 32 12 17 1018.8 1018.8 0.0
29/01:30pm 19.8 14.8 6.5 42 6.7 N 22 33 12 18 1019.5 1019.5 0.0
29/01:00pm 19.7 15.7 8.1 47 6.0 N 19 28 10 15 1020.2 1020.2 0.0
29/12:30pm 18.7 15.6 7.2 47 5.8 N 13 26 7 14 1020.9 1020.9 0.0
29/12:00pm 17.9 14.0 7.3 50 5.3 NNE 17 24 9 13 1021.3 1021.3 0.0
29/11:30am 17.0 12.7 7.1 52 4.9 N 19 24 10 13 1021.9 1021.9 0.0
29/11:00am 17.3 13.7 8.4 56 4.5 NNE 17 24 9 13 1022.5 1022.5 0.0
29/10:30am 16.1 13.0 7.3 56 4.4 NNE 13 20 7 11 1022.8 1022.8 0.0
29/10:00am 15.0 12.1 8.0 63 3.5 NE 13 17 7 9 1023.0 1023.0 0.0
29/09:30am 13.5 10.5 7.9 69 2.8 NE 13 17 7 9 1023.3 1023.3 0.0
29/09:00am 11.5 8.7 7.0 74 2.1 NE 11 15 6 8 1024.2 1024.2 0.0
29/08:30am 10.4 8.5 7.5 82 1.4 NNE 7 9 4 5 1025.1 1025.1 0.0
29/08:00am 8.8 6.5 7.4 91 0.7 N 9 13 5 7 1025.4 1025.4 0.0
29/07:30am 7.1 4.7 7.0 99 0.0 N 9 11 5 6 1025.2 1025.2 0.0
29/07:00am 5.2 3.0 5.1 99 0.0 N 6 6 3 3 1025.2 1025.2 0.0
29/06:30am 3.6 1.1 3.5 99 0.0 NE 6 7 3 4 1024.9 1024.9 0.0
29/06:00am 3.6 1.1 3.5 99 0.0 NNE 6 7 3 4 1024.7 1024.7 0.0
29/05:30am 2.9 1.4 2.8 99 0.0 CALM 0 0 0 0 1024.3 1024.3 0.0
29/05:00am 3.0 1.5 2.9 99 0.0 CALM 0 0 0 0 1023.9 1023.9 0.0
29/04:30am 3.7 1.9 3.4 98 0.1 N 2 6 1 3 1023.9 1023.9 0.0
29/04:00am 4.0 1.3 3.7 98 0.1 N 7 9 4 5 1024.1 1024.1 0.0
29/03:30am 3.4 1.9 2.8 96 0.2 CALM 0 0 0 0 1024.1 1024.1 0.0
29/03:00am 3.8 1.2 3.1 95 0.3 E 6 6 3 3 1024.2 1024.2 0.0
29/02:30am 3.3 0.3 2.3 93 0.4 E 7 7 4 4 1024.3 1024.3 0.0
29/02:00am 4.2 1.6 3.0 92 0.5 E 6 7 3 4 1024.9 1024.9 0.0
29/01:30am 4.8 3.4 3.5 91 0.5 CALM 0 0 0 0 1025.7 1025.7 0.0
29/01:00am 5.2 3.1 3.7 90 0.6 SE 4 7 2 4 1026.0 1026.0 0.0
29/12:30am 5.5 3.0 3.8 89 0.7 ESE 6 7 3 4 1026.1 1026.1 0.0
29/12:00am 5.8 3.4 4.1 89 0.7 SE 6 7 3 4 1026.1 1026.1 0.0
 
Date/Time
EST
Temp
°C
App
Temp
°C
Dew
Point
°C
Rel
Hum
%
Delta-T
°C
Wind Press
QNH
hPa
Press
MSL
hPa
Rain since
9am
mm
Dir  Spd
km/h
Gust
km/h
Spd
kts
Gust
kts
28/11:30pm 5.3 2.5 3.3 87 0.8 ESE 7 9 4 5 1026.1 1026.1 0.0
28/11:00pm 5.8 2.7 3.5 85 1.0 ESE 9 9 5 5 1026.3 1026.4 0.0
28/10:30pm 6.7 3.4 4.4 85 1.0 ESE 11 15 6 8 1026.5 1026.6 0.0
28/10:00pm 6.7 3.4 4.4 85 1.0 ESE 11 13 6 7 1026.7 1026.8 0.0
28/09:30pm 7.1 4.2 4.4 83 1.2 ESE 9 11 5 6 1027.0 1027.1 0.0
28/09:00pm 7.4 4.1 4.4 81 1.3 SE 11 13 6 7 1027.1 1027.2 0.0
28/08:30pm 7.6 4.2 4.2 79 1.5 SE 11 13 6 7 1027.0 1027.1 0.0
28/08:00pm 8.2 4.5 4.6 78 1.6 SE 13 15 7 8 1027.0 1027.1 0.0
28/07:30pm 9.3 5.3 5.1 75 1.9 SE 15 22 8 12 1026.9 1027.0 0.0
28/07:00pm 10.1 5.9 5.7 74 2.0 SE 17 22 9 12 1026.6 1026.7 0.0
28/06:30pm 10.6 6.4 5.8 72 2.2 SE 17 22 9 12 1026.4 1026.5 0.0
28/06:00pm 11.4 7.7 6.5 72 2.3 SSW 15 20 8 11 1026.3 1026.4 0.0
28/05:30pm 11.7 7.1 6.4 70 2.5 SSW 20 28 11 15 1026.2 1026.3 0.0
28/05:00pm 11.8 6.7 6.1 68 2.7 SW 22 28 12 15 1026.3 1026.4 0.0
28/04:30pm 12.0 6.9 6.1 67 2.8 SSW 22 30 12 16 1026.4 1026.5 0.0
28/04:00pm 12.0 7.3 5.9 66 2.8 SSW 20 26 11 14 1026.3 1026.4 0.0
28/03:30pm 12.3 7.6 5.9 65 3.0 SW 20 28 11 15 1026.3 1026.4 0.0
28/03:00pm 12.7 8.2 6.1 64 3.1 SW 19 24 10 13 1026.5 1026.6 0.0
28/02:30pm 13.0 8.8 5.9 62 3.3 SSW 17 22 9 12 1026.7 1026.8 0.0
28/02:00pm 12.6 7.9 5.3 61 3.4 SSW 19 24 10 13 1027.2 1027.3 0.0
28/01:30pm 12.7 8.1 5.6 62 3.3 SW 19 24 10 13 1027.5 1027.6 0.0
28/01:00pm 12.8 9.0 5.7 62 3.3 SSW 15 22 8 12 1027.8 1027.9 0.0
28/12:30pm 12.9 8.8 6.3 64 3.1 SW 17 24 9 13 1028.3 1028.4 0.0
28/12:00pm 11.5 7.1 4.9 64 3.0 SW 17 26 9 14 1028.6 1028.7 0.0
28/11:30am 12.3 8.7 5.2 62 3.3 SW 13 20 7 11 1028.8 1028.9 0.0
28/11:00am 11.4 7.7 4.6 63 3.1 WSW 13 22 7 12 1029.2 1029.3 0.0
28/10:30am 11.2 7.6 4.9 65 2.9 SW 13 20 7 11 1029.5 1029.6 0.0
28/10:00am 11.1 7.0 4.6 64 2.9 S 15 20 8 11 1029.7 1029.8 0.0
28/09:30am 10.9 7.6 4.6 65 2.8 SSW 11 20 6 11 1029.6 1029.7 0.0
28/09:00am 10.6 7.3 4.7 67 2.6 S 11 17 6 9 1029.3 1029.4 0.0

Other formats

Comma delimited format used in spreadsheet applications
http://www.bom.gov.au/fwo/IDV60801/IDV60801.94870.axf

JavaScript Object Notation format (JSON) in row-major order
http://www.bom.gov.au/fwo/IDV60801/IDV60801.94870.json

Data quality

Most of these data are generated automatically and are frequently updated. Quality checks on data are not normally performed. It is possible for incorrect values to appear. Refer to information at About Latest Weather Observations and please check the disclaimer before using these data.